Reynosa, Mexico

1:19 AM EST on May 07, 2015 (GMT -0500)
RAWS | | Change Station
CLOSE
Current Station
Personal Weather Station
Location: Hidalgo, TX
Elevation: 89 ft
Nearby Weather Stations

Elev 89 ft 26.08 °N, 98.16 °W | Updated 34 minutes ago

Partly Cloudy
Partly Cloudy
75 °F
Feels Like 74 °F
N
4
Wind Variable Wind from SE
Gusts 8.0 mph

Today
High -- | Low -- °F
--% Chance of Precip.
Yesterday
High -- | Low -- °F
Precip. -- in
6:51 AM 8:07 PM
Waning Gibbous, 90% visible
Pressure 29.85 in
Visibility 9.0 miles
Clouds Overcast 2500 ft
Heat Index 74 °F
Dew Point 73 °F
Humidity 93%
Rainfall in
Snow Depth Not available.
UV 0 out of 12
Pollen Not available.
Air Quality Not available.
Flu Activity Not available.
METAR KMFE 070553Z AUTO 12009KT 9SM OVC025 26/23 A2985 RMK AO2 SLP107 T02560228 10294 20256 403170250 50003

More Conditions Fewer Conditions

Pressure 29.85 in
Visibility 9.0 miles
Clouds Overcast 2500 ft
Heat Index 74 °F
Dew Point 73 °F
Humidity 93%
Rainfall in
Snow Depth Not available.
UV 0 out of 12
Pollen Not available.
Air Quality Not available.
Flu Activity Not available.
METAR KMFE 070553Z AUTO 12009KT 9SM OVC025 26/23 A2985 RMK AO2 SLP107 T02560228 10294 20256 403170250 50003

More Conditions Fewer Conditions

10-Day Weather Forecast

Almanac

Astronomy

May. 07, 2015 Rise Set
Actual Time
Civil Twilight
Nautical Twilight
Astronomical Twilight
Moon
Length of Visible Light
Length of Day
Tomorrow will be .
, % of the Moon is Illuminated

Today's Extremes

Country Highs Country Lows

Community

WunderPhotos

Upload Photos

1,819,126 photos uploaded!

WunderBlogs® & News

Nearby

Air Quality

  Air Quality AQ Index Pollutant
Not available.

Snow Depth

Station Depth Elevation

Earthquake Activity

City Distance Mag. Time & Date
Minimum magnitude displayed is 2.5.

Coastal Water Temperatures

Place Temperature

Stations

Nearby Weather Stations

Station Location Temp. Windchill Dew Point Humidity Wind Precip. Elev Updated Type